createdAt,value
2019-02-27T00:00:53.190Z,0.00
2019-02-27T00:01:53.164Z,0.00
2019-02-27T00:02:53.761Z,0.00
2019-02-27T00:03:53.121Z,0.00
2019-02-27T00:04:53.098Z,0.00
2019-02-27T00:05:53.072Z,0.00
2019-02-27T00:06:53.053Z,0.00
2019-02-27T00:07:54.844Z,0.00
2019-02-27T00:08:52.999Z,0.00
2019-02-27T00:09:52.980Z,0.00
2019-02-27T00:10:52.951Z,0.00
2019-02-27T00:11:52.936Z,0.00
2019-02-27T00:12:52.917Z,0.00
2019-02-27T00:13:52.882Z,0.00
2019-02-27T00:14:52.857Z,0.00
2019-02-27T00:15:52.832Z,0.00
2019-02-27T00:16:52.809Z,0.00
2019-02-27T00:17:52.790Z,0.00
2019-02-27T00:18:53.739Z,0.00
2019-02-27T00:19:52.738Z,0.00
2019-02-27T00:20:52.721Z,0.00
2019-02-27T00:21:52.690Z,0.00
2019-02-27T00:22:52.668Z,0.00
2019-02-27T00:23:56.739Z,0.00
2019-02-27T00:24:52.629Z,0.00
2019-02-27T00:25:52.596Z,0.00
2019-02-27T00:26:52.571Z,0.00
2019-02-27T00:27:52.548Z,0.00
2019-02-27T00:28:55.964Z,0.00
2019-02-27T00:29:52.541Z,0.00
2019-02-27T00:30:52.479Z,0.00
2019-02-27T00:31:52.453Z,0.00
2019-02-27T00:32:52.427Z,0.00
2019-02-27T00:33:52.402Z,0.00
2019-02-27T00:34:52.389Z,0.00
2019-02-27T00:35:52.362Z,0.00
2019-02-27T00:36:52.341Z,0.00
2019-02-27T00:37:52.707Z,0.00
2019-02-27T00:38:52.284Z,0.00
2019-02-27T00:39:52.262Z,0.00
2019-02-27T00:40:52.236Z,0.00
2019-02-27T00:41:52.212Z,0.00
2019-02-27T00:42:54.456Z,0.00
2019-02-27T00:43:52.163Z,0.00
2019-02-27T00:44:52.139Z,0.00
2019-02-27T00:45:52.120Z,0.00
2019-02-27T00:46:52.091Z,0.00
2019-02-27T00:47:53.311Z,0.00
2019-02-27T00:48:52.042Z,0.00
2019-02-27T00:49:52.026Z,0.00
2019-02-27T00:50:52.001Z,0.00
2019-02-27T00:51:51.969Z,0.00
2019-02-27T00:52:51.947Z,0.00
2019-02-27T00:53:51.929Z,0.00
2019-02-27T00:54:51.897Z,0.00
2019-02-27T00:55:51.875Z,0.00
2019-02-27T00:56:51.850Z,0.00
2019-02-27T00:57:54.348Z,0.00
2019-02-27T00:58:51.799Z,0.00
2019-02-27T00:59:51.778Z,0.00
2019-02-27T01:00:51.753Z,0.00
2019-02-27T01:01:51.731Z,0.00
2019-02-27T01:02:53.472Z,0.00
2019-02-27T01:03:51.678Z,0.00
2019-02-27T01:04:51.655Z,0.00
2019-02-27T01:05:51.630Z,0.00
2019-02-27T01:06:51.614Z,0.00
2019-02-27T01:07:53.862Z,0.00
2019-02-27T01:08:51.558Z,0.00
2019-02-27T01:09:51.533Z,0.00
2019-02-27T01:10:51.520Z,0.00
2019-02-27T01:11:51.949Z,0.00
2019-02-27T01:12:51.468Z,0.00
2019-02-27T01:13:51.444Z,0.00
2019-02-27T01:14:51.419Z,0.00
2019-02-27T01:15:51.388Z,0.00
2019-02-27T01:16:51.363Z,0.00
2019-02-27T01:17:51.344Z,0.00
2019-02-27T01:18:51.315Z,0.00
2019-02-27T01:19:51.291Z,0.00
2019-02-27T01:20:51.268Z,0.00
2019-02-27T01:21:51.261Z,0.00
2019-02-27T01:22:51.216Z,0.00
2019-02-27T01:23:51.194Z,0.00
2019-02-27T01:24:51.181Z,0.00
2019-02-27T01:25:51.145Z,0.00
2019-02-27T01:26:51.120Z,0.00
2019-02-27T01:27:51.105Z,0.00
2019-02-27T01:28:51.072Z,0.00
2019-02-27T01:29:51.752Z,0.00
2019-02-27T01:30:51.034Z,0.00
2019-02-27T01:31:51.002Z,0.00
2019-02-27T01:32:50.978Z,0.00
2019-02-27T01:33:50.963Z,0.00
2019-02-27T01:34:50.925Z,0.00
2019-02-27T01:35:52.127Z,0.00
2019-02-27T01:36:50.875Z,0.00
2019-02-27T01:37:50.849Z,0.00
2019-02-27T01:38:50.826Z,0.00
2019-02-27T01:39:50.804Z,0.00
2019-02-27T01:40:51.537Z,0.00
2019-02-27T01:41:50.755Z,0.00
2019-02-27T01:42:50.737Z,0.00
2019-02-27T01:43:50.718Z,0.00
2019-02-27T01:44:50.681Z,0.00
2019-02-27T01:45:51.890Z,0.00
2019-02-27T01:46:50.630Z,0.00
2019-02-27T01:47:50.606Z,0.00
2019-02-27T01:48:50.588Z,0.00
2019-02-27T01:49:50.559Z,0.00
2019-02-27T01:50:54.979Z,0.00
2019-02-27T01:51:50.507Z,0.00
2019-02-27T01:52:50.483Z,0.00
2019-02-27T01:53:50.459Z,0.00
2019-02-27T01:54:50.434Z,0.00
2019-02-27T01:55:50.409Z,0.00
2019-02-27T01:56:50.393Z,0.00
2019-02-27T01:57:50.358Z,0.00
2019-02-27T01:58:50.336Z,0.00
2019-02-27T01:59:51.021Z,0.00
2019-02-27T02:00:50.288Z,0.00
2019-02-27T02:01:50.261Z,0.00
2019-02-27T02:02:50.237Z,0.00
2019-02-27T02:03:50.211Z,0.00
2019-02-27T02:04:53.111Z,0.00
2019-02-27T02:05:50.164Z,0.00
2019-02-27T02:06:50.148Z,0.00
2019-02-27T02:07:50.115Z,0.00
2019-02-27T02:08:50.090Z,0.00
2019-02-27T02:09:52.149Z,0.00
2019-02-27T02:10:50.040Z,0.00
2019-02-27T02:11:50.015Z,0.00
2019-02-27T02:12:49.992Z,0.00
2019-02-27T02:13:49.967Z,0.00
2019-02-27T02:14:54.140Z,0.00
2019-02-27T02:15:49.916Z,0.00
2019-02-27T02:16:49.893Z,0.00
2019-02-27T02:17:49.865Z,0.00
2019-02-27T02:18:49.844Z,0.00
2019-02-27T02:19:54.015Z,0.00
2019-02-27T02:20:49.794Z,0.00
2019-02-27T02:21:49.768Z,0.00
2019-02-27T02:22:49.742Z,0.00
2019-02-27T02:23:49.716Z,0.00
2019-02-27T02:24:51.900Z,0.00
2019-02-27T02:25:49.667Z,0.00
2019-02-27T02:26:49.648Z,0.00
2019-02-27T02:27:49.619Z,0.00
2019-02-27T02:28:49.596Z,0.00
2019-02-27T02:29:52.968Z,0.00
2019-02-27T02:30:49.545Z,0.00
2019-02-27T02:31:49.524Z,0.00
2019-02-27T02:32:52.365Z,0.00
2019-02-27T02:33:49.470Z,0.00
2019-02-27T02:34:49.445Z,0.00
2019-02-27T02:35:50.782Z,0.00
2019-02-27T02:36:49.395Z,0.00
2019-02-27T02:37:49.371Z,0.00
2019-02-27T02:38:49.345Z,0.00
2019-02-27T02:39:54.260Z,0.00
2019-02-27T02:40:49.299Z,0.00
2019-02-27T02:41:49.274Z,0.00
2019-02-27T02:42:49.255Z,0.00
2019-02-27T02:43:49.224Z,0.00
2019-02-27T02:44:49.206Z,0.00
2019-02-27T02:45:49.171Z,0.00
2019-02-27T02:46:49.152Z,0.00
2019-02-27T02:47:49.122Z,0.00
2019-02-27T02:48:49.100Z,0.00
2019-02-27T02:49:49.072Z,0.00
2019-02-27T02:50:54.013Z,0.00
2019-02-27T02:51:49.024Z,0.00
2019-02-27T02:52:49.002Z,0.00
2019-02-27T02:53:49.165Z,0.00
2019-02-27T02:54:48.960Z,0.00
2019-02-27T02:55:49.370Z,0.00
2019-02-27T02:56:48.899Z,0.00
2019-02-27T02:57:48.874Z,0.00
2019-02-27T02:58:48.979Z,0.00
2019-02-27T02:59:48.824Z,0.00
2019-02-27T03:00:48.801Z,0.00
2019-02-27T03:01:49.289Z,0.00
2019-02-27T03:02:48.749Z,0.00
2019-02-27T03:03:48.743Z,0.00
2019-02-27T03:04:49.377Z,0.00
2019-02-27T03:05:48.675Z,0.00
2019-02-27T03:06:48.661Z,0.00
2019-02-27T03:07:48.636Z,0.00
2019-02-27T03:08:54.956Z,0.00
2019-02-27T03:09:48.579Z,0.00
2019-02-27T03:10:48.551Z,0.00
2019-02-27T03:11:54.221Z,0.00
2019-02-27T03:12:48.520Z,0.00
2019-02-27T03:13:48.474Z,0.00
2019-02-27T03:14:53.311Z,0.00
2019-02-27T03:15:48.425Z,0.00
2019-02-27T03:16:48.400Z,0.00
2019-02-27T03:17:53.697Z,0.00
2019-02-27T03:18:48.354Z,0.00
2019-02-27T03:19:48.325Z,0.00
2019-02-27T03:20:51.799Z,0.00
2019-02-27T03:21:48.274Z,0.00
2019-02-27T03:22:48.250Z,0.00
2019-02-27T03:23:52.059Z,0.00
2019-02-27T03:24:48.219Z,0.00
2019-02-27T03:25:48.172Z,0.00
2019-02-27T03:26:51.620Z,0.00
2019-02-27T03:27:48.126Z,0.00
2019-02-27T03:28:48.108Z,0.00
2019-02-27T03:29:52.199Z,0.00
2019-02-27T03:30:48.078Z,0.00
2019-02-27T03:31:57.672Z,0.00
2019-02-27T03:32:48.004Z,0.00
2019-02-27T03:33:47.982Z,0.00
2019-02-27T03:34:50.917Z,0.00
2019-02-27T03:35:47.922Z,0.00
2019-02-27T03:36:47.896Z,0.00
2019-02-27T03:37:49.344Z,0.00
2019-02-27T03:38:47.846Z,0.00
2019-02-27T03:39:47.823Z,0.00
2019-02-27T03:40:48.106Z,0.00
2019-02-27T03:41:47.772Z,0.00
2019-02-27T03:42:47.750Z,0.00
2019-02-27T03:43:47.720Z,0.00
2019-02-27T03:44:47.697Z,0.00
2019-02-27T03:45:47.668Z,0.00
2019-02-27T03:46:47.649Z,0.00
2019-02-27T03:47:51.661Z,0.00
2019-02-27T03:48:47.597Z,0.00
2019-02-27T03:49:47.574Z,0.00
2019-02-27T03:50:49.933Z,0.00
2019-02-27T03:51:47.524Z,0.00
2019-02-27T03:52:47.496Z,0.00
2019-02-27T03:53:47.466Z,0.00
2019-02-27T03:54:48.474Z,0.00
2019-02-27T03:55:47.416Z,0.00
2019-02-27T03:56:47.392Z,0.00
2019-02-27T03:57:47.364Z,0.00
2019-02-27T03:58:47.348Z,0.00
2019-02-27T03:59:47.316Z,0.00
2019-02-27T04:00:49.848Z,0.00
2019-02-27T04:01:47.274Z,0.00
2019-02-27T04:02:47.239Z,0.00
2019-02-27T04:03:47.213Z,0.00
2019-02-27T04:04:47.188Z,0.00
2019-02-27T04:05:47.172Z,0.00
2019-02-27T04:06:47.147Z,0.00
2019-02-27T04:07:47.111Z,0.00
2019-02-27T04:08:47.088Z,0.00
2019-02-27T04:09:47.063Z,0.00
2019-02-27T04:10:47.046Z,0.00
2019-02-27T04:11:47.010Z,0.00
2019-02-27T04:12:51.361Z,0.00
2019-02-27T04:13:46.959Z,0.00
2019-02-27T04:14:46.934Z,0.00
2019-02-27T04:15:46.918Z,0.00
2019-02-27T04:16:46.886Z,0.00
2019-02-27T04:17:51.882Z,0.00
2019-02-27T04:18:46.838Z,0.00
2019-02-27T04:19:46.816Z,0.00
2019-02-27T04:20:50.169Z,0.00
2019-02-27T04:21:46.756Z,0.00
2019-02-27T04:22:46.742Z,0.00
2019-02-27T04:23:48.979Z,0.00
2019-02-27T04:24:46.681Z,0.00
2019-02-27T04:25:46.658Z,0.00
2019-02-27T04:26:46.629Z,0.00
2019-02-27T04:27:46.605Z,0.00
2019-02-27T04:28:46.582Z,0.00
2019-02-27T04:29:46.564Z,0.00
2019-02-27T04:30:51.019Z,0.00
2019-02-27T04:31:46.503Z,0.00
2019-02-27T04:32:48.684Z,0.00
2019-02-27T04:33:46.455Z,0.00
2019-02-27T04:34:46.425Z,0.00
2019-02-27T04:35:46.400Z,0.00
2019-02-27T04:36:47.176Z,0.00
2019-02-27T04:37:46.349Z,0.00
2019-02-27T04:38:46.327Z,0.00
2019-02-27T04:39:46.302Z,0.00
2019-02-27T04:40:46.275Z,0.00
2019-02-27T04:41:46.249Z,0.00
2019-02-27T04:42:46.224Z,0.00
2019-02-27T04:43:46.198Z,0.00
2019-02-27T04:44:46.173Z,0.00
2019-02-27T04:45:46.888Z,0.00
2019-02-27T04:46:46.121Z,0.00
2019-02-27T04:47:46.095Z,0.00
2019-02-27T04:48:46.068Z,0.00
2019-02-27T04:49:46.041Z,0.00
2019-02-27T04:50:46.019Z,0.00
2019-02-27T04:51:48.127Z,0.00
2019-02-27T04:52:45.968Z,0.00
2019-02-27T04:53:45.941Z,0.00
2019-02-27T04:54:45.921Z,0.00
2019-02-27T04:55:47.992Z,0.00
2019-02-27T04:56:45.865Z,0.00
2019-02-27T04:57:45.838Z,0.00
2019-02-27T04:58:45.813Z,0.00
2019-02-27T04:59:45.788Z,0.00
2019-02-27T05:00:45.762Z,0.00
2019-02-27T05:01:45.734Z,0.00
2019-02-27T05:02:45.710Z,0.00
2019-02-27T05:03:45.685Z,0.00
2019-02-27T05:04:45.660Z,0.00
2019-02-27T05:05:45.633Z,0.00
2019-02-27T05:06:47.364Z,0.00
2019-02-27T05:07:45.584Z,0.00
2019-02-27T05:08:45.557Z,0.00
2019-02-27T05:09:45.531Z,0.00
2019-02-27T05:10:45.529Z,0.00
2019-02-27T05:11:48.334Z,0.00
2019-02-27T05:12:48.281Z,0.00
2019-02-27T05:13:45.429Z,0.00
2019-02-27T05:14:45.402Z,0.00
2019-02-27T05:15:45.377Z,0.00
2019-02-27T05:16:47.197Z,0.00
2019-02-27T05:17:45.326Z,0.00
2019-02-27T05:18:45.301Z,0.00
2019-02-27T05:19:45.275Z,0.00
2019-02-27T05:20:45.826Z,0.00
2019-02-27T05:21:45.224Z,0.00
2019-02-27T05:22:45.203Z,0.00
2019-02-27T05:23:45.230Z,0.00
2019-02-27T05:24:45.149Z,0.00
2019-02-27T05:25:45.121Z,0.00
2019-02-27T05:26:45.096Z,0.00
2019-02-27T05:27:45.070Z,0.00
2019-02-27T05:28:45.060Z,0.00
2019-02-27T05:29:45.021Z,0.00
2019-02-27T05:30:45.790Z,0.00
2019-02-27T05:31:44.975Z,0.00
2019-02-27T05:32:44.940Z,0.00
2019-02-27T05:33:44.920Z,0.00
2019-02-27T05:34:49.425Z,0.00
2019-02-27T05:35:44.864Z,0.00
2019-02-27T05:36:44.838Z,0.00
2019-02-27T05:37:44.823Z,0.00
2019-02-27T05:38:44.787Z,0.00
2019-02-27T05:39:44.761Z,0.00
2019-02-27T05:40:44.734Z,0.00
2019-02-27T05:41:44.708Z,0.00
2019-02-27T05:42:44.680Z,0.00
2019-02-27T05:43:47.546Z,0.00
2019-02-27T05:44:44.630Z,0.00
2019-02-27T05:45:44.606Z,0.00
2019-02-27T05:46:44.579Z,0.00
2019-02-27T05:47:45.802Z,0.00
2019-02-27T05:48:44.528Z,0.00
2019-02-27T05:49:44.556Z,0.00
2019-02-27T05:50:44.523Z,0.00
2019-02-27T05:51:44.450Z,0.00
2019-02-27T05:52:48.389Z,0.00
2019-02-27T05:53:44.404Z,0.00
2019-02-27T05:54:44.371Z,0.00
2019-02-27T05:55:44.346Z,0.00
2019-02-27T05:56:44.323Z,0.00
2019-02-27T05:57:44.294Z,0.00
2019-02-27T05:58:44.268Z,0.00
2019-02-27T05:59:44.242Z,0.00
2019-02-27T06:00:44.217Z,0.00
2019-02-27T06:01:44.191Z,0.00
2019-02-27T06:02:45.020Z,0.00
2019-02-27T06:03:44.140Z,0.00
2019-02-27T06:04:44.113Z,0.00
2019-02-27T06:05:49.559Z,0.00
2019-02-27T06:06:45.718Z,0.00
2019-02-27T06:07:44.044Z,0.00
2019-02-27T06:08:44.013Z,0.00
2019-02-27T06:09:44.578Z,0.00
2019-02-27T06:10:43.960Z,5.63
2019-02-27T06:11:43.944Z,5.63
2019-02-27T06:12:43.908Z,5.63
2019-02-27T06:13:45.000Z,5.63
2019-02-27T06:14:43.854Z,5.63
2019-02-27T06:15:43.834Z,5.63
2019-02-27T06:16:43.805Z,11.25
2019-02-27T06:17:48.296Z,11.25
2019-02-27T06:18:43.759Z,11.25
2019-02-27T06:19:43.739Z,11.25
2019-02-27T06:20:43.700Z,11.25
2019-02-27T06:21:43.673Z,16.88
2019-02-27T06:22:43.658Z,16.88
2019-02-27T06:23:43.622Z,16.88
2019-02-27T06:24:45.731Z,16.88
2019-02-27T06:25:43.571Z,22.50
2019-02-27T06:26:43.545Z,22.50
2019-02-27T06:27:43.532Z,22.50
2019-02-27T06:28:43.494Z,28.13
2019-02-27T06:29:43.469Z,28.13
2019-02-27T06:30:43.440Z,28.13
2019-02-27T06:31:43.414Z,33.75
2019-02-27T06:32:43.389Z,33.75
2019-02-27T06:33:45.780Z,33.75
2019-02-27T06:34:43.342Z,33.75
2019-02-27T06:35:43.320Z,39.38
2019-02-27T06:36:43.295Z,39.38
2019-02-27T06:37:43.259Z,39.38
2019-02-27T06:38:43.242Z,45.00
2019-02-27T06:39:43.213Z,45.00
2019-02-27T06:40:43.184Z,45.00
2019-02-27T06:41:43.155Z,50.63
2019-02-27T06:42:43.131Z,50.63
2019-02-27T06:43:43.105Z,50.63
2019-02-27T06:44:43.128Z,56.25
2019-02-27T06:45:45.370Z,56.25
2019-02-27T06:46:44.525Z,61.88
2019-02-27T06:47:43.004Z,61.88
2019-02-27T06:48:44.048Z,61.88
2019-02-27T06:49:42.961Z,67.50
2019-02-27T06:50:42.923Z,67.50
2019-02-27T06:51:42.906Z,67.50
2019-02-27T06:52:43.118Z,73.13
2019-02-27T06:53:42.856Z,73.13
2019-02-27T06:54:42.821Z,73.13
2019-02-27T06:55:42.795Z,78.75
2019-02-27T06:56:42.772Z,78.75
2019-02-27T06:57:42.743Z,78.75
2019-02-27T06:58:42.725Z,84.38
2019-02-27T06:59:42.690Z,84.38
2019-02-27T07:00:42.682Z,84.38
2019-02-27T07:01:45.026Z,90.00
2019-02-27T07:02:42.614Z,90.00
2019-02-27T07:03:42.594Z,90.00
2019-02-27T07:04:42.563Z,95.63
2019-02-27T07:05:42.538Z,95.63
2019-02-27T07:06:42.511Z,95.63
2019-02-27T07:07:42.502Z,95.63
2019-02-27T07:08:42.460Z,101.25
2019-02-27T07:09:45.522Z,101.25
2019-02-27T07:10:42.407Z,101.25
2019-02-27T07:11:44.998Z,101.25
2019-02-27T07:12:42.361Z,106.88
2019-02-27T07:13:42.330Z,106.88
2019-02-27T07:14:42.302Z,112.50
2019-02-27T07:15:47.909Z,112.50
2019-02-27T07:16:42.254Z,112.50
2019-02-27T07:17:42.246Z,112.50
2019-02-27T07:18:42.470Z,118.13
2019-02-27T07:19:42.183Z,118.13
2019-02-27T07:20:42.156Z,118.13
2019-02-27T07:21:42.125Z,118.13
2019-02-27T07:22:45.495Z,123.75
2019-02-27T07:23:42.072Z,123.75
2019-02-27T07:24:42.051Z,123.75
2019-02-27T07:25:42.786Z,123.75
2019-02-27T07:26:41.996Z,129.38
2019-02-27T07:27:41.989Z,129.38
2019-02-27T07:28:43.506Z,129.38
2019-02-27T07:29:42.918Z,129.38
2019-02-27T07:30:42.481Z,135.00
2019-02-27T07:31:41.868Z,135.00
2019-02-27T07:32:41.850Z,135.00
2019-02-27T07:33:41.817Z,135.00
2019-02-27T07:34:41.791Z,140.63
2019-02-27T07:35:41.770Z,140.63
2019-02-27T07:36:41.744Z,140.63
2019-02-27T07:37:41.718Z,140.63
2019-02-27T07:38:41.692Z,140.63
2019-02-27T07:39:41.667Z,146.25
2019-02-27T07:40:43.029Z,146.25
2019-02-27T07:41:41.616Z,146.25
2019-02-27T07:42:41.605Z,146.25
2019-02-27T07:43:41.571Z,151.88
2019-02-27T07:44:42.261Z,151.88
2019-02-27T07:45:42.765Z,151.88
2019-02-27T07:46:41.490Z,151.88
2019-02-27T07:47:41.465Z,151.88
2019-02-27T07:48:41.439Z,157.50
2019-02-27T07:49:41.419Z,157.50
2019-02-27T07:50:41.389Z,157.50
2019-02-27T07:51:41.369Z,157.50
2019-02-27T07:52:41.339Z,157.50
2019-02-27T07:53:41.317Z,163.13
2019-02-27T07:54:41.286Z,163.13
2019-02-27T07:55:41.263Z,163.13
2019-02-27T07:56:41.237Z,163.13
2019-02-27T07:57:41.213Z,163.13
2019-02-27T07:58:41.187Z,168.75
2019-02-27T07:59:41.163Z,168.75
2019-02-27T08:00:42.769Z,168.75
2019-02-27T08:01:43.978Z,168.75
2019-02-27T08:02:41.085Z,168.75
2019-02-27T08:03:44.907Z,168.75
2019-02-27T08:04:41.037Z,174.38
2019-02-27T08:05:41.019Z,174.38
2019-02-27T08:06:41.587Z,174.38
2019-02-27T08:07:40.960Z,174.38
2019-02-27T08:08:40.937Z,174.38
2019-02-27T08:09:40.918Z,174.38
2019-02-27T08:10:40.895Z,180.00
2019-02-27T08:11:40.861Z,180.00
2019-02-27T08:12:40.842Z,180.00
2019-02-27T08:13:40.810Z,180.00
2019-02-27T08:14:40.800Z,180.00
2019-02-27T08:15:40.761Z,180.00
2019-02-27T08:16:40.743Z,185.63
2019-02-27T08:17:40.711Z,185.63
2019-02-27T08:18:40.688Z,185.63
2019-02-27T08:19:42.832Z,185.63
2019-02-27T08:20:40.640Z,185.63
2019-02-27T08:21:40.620Z,185.63
2019-02-27T08:22:40.598Z,185.63
2019-02-27T08:23:40.569Z,185.63
2019-02-27T08:24:40.540Z,185.63
2019-02-27T08:25:40.521Z,191.25
2019-02-27T08:26:40.492Z,191.25
2019-02-27T08:27:43.073Z,191.25
2019-02-27T08:28:40.454Z,191.25
2019-02-27T08:29:40.428Z,191.25
2019-02-27T08:30:40.391Z,191.25
2019-02-27T08:31:40.367Z,196.88
2019-02-27T08:32:40.344Z,196.88
2019-02-27T08:33:40.373Z,196.88
2019-02-27T08:34:40.295Z,196.88
2019-02-27T08:35:40.274Z,196.88
2019-02-27T08:36:40.245Z,196.88
2019-02-27T08:37:40.222Z,196.88
2019-02-27T08:38:40.248Z,196.88
2019-02-27T08:39:40.170Z,196.88
2019-02-27T08:40:40.152Z,202.50
2019-02-27T08:41:40.124Z,202.50
2019-02-27T08:42:40.564Z,202.50
2019-02-27T08:43:41.218Z,202.50
2019-02-27T08:44:40.058Z,202.50
2019-02-27T08:45:40.040Z,202.50
2019-02-27T08:46:40.005Z,208.13
2019-02-27T08:47:40.869Z,208.13
2019-02-27T08:48:39.971Z,208.13
2019-02-27T08:49:39.926Z,208.13
2019-02-27T08:50:39.903Z,208.13
2019-02-27T08:51:42.006Z,213.75
2019-02-27T08:52:39.853Z,213.75
2019-02-27T08:53:39.829Z,213.75
2019-02-27T08:54:39.805Z,219.38
2019-02-27T08:55:39.832Z,219.38
2019-02-27T08:56:39.756Z,219.38
2019-02-27T08:57:39.732Z,225.00
2019-02-27T08:58:39.708Z,225.00
2019-02-27T08:59:40.690Z,281.25
2019-02-27T09:00:39.671Z,517.50
2019-02-27T09:01:39.636Z,804.38
2019-02-27T09:02:39.754Z,1338.75
2019-02-27T09:03:39.587Z,1620.00
2019-02-27T09:04:39.567Z,1670.63
2019-02-27T09:05:39.540Z,1957.50
2019-02-27T09:06:39.526Z,2013.75
2019-02-27T09:07:39.494Z,1788.75
2019-02-27T09:08:43.339Z,1805.63
2019-02-27T09:09:39.449Z,1631.25
2019-02-27T09:10:39.427Z,1400.63
2019-02-27T09:11:40.753Z,1676.25
2019-02-27T09:12:40.248Z,1665.00
2019-02-27T09:13:39.363Z,1749.38
2019-02-27T09:14:39.351Z,1974.38
2019-02-27T09:15:41.574Z,1417.50
2019-02-27T09:16:39.314Z,1327.50
2019-02-27T09:17:39.282Z,1378.13
2019-02-27T09:18:39.263Z,1400.63
2019-02-27T09:19:39.262Z,1828.13
2019-02-27T09:20:39.227Z,1530.00
2019-02-27T09:21:39.205Z,1383.75
2019-02-27T09:22:39.187Z,1248.75
2019-02-27T09:23:39.175Z,1023.75
2019-02-27T09:24:39.162Z,1209.38
2019-02-27T09:25:39.140Z,1569.38
2019-02-27T09:26:39.145Z,1828.13
2019-02-27T09:27:39.103Z,1406.25
2019-02-27T09:28:39.084Z,1361.25
2019-02-27T09:29:39.072Z,1355.63
2019-02-27T09:30:39.045Z,1440.00
2019-02-27T09:31:39.043Z,1721.25
2019-02-27T09:32:39.013Z,2109.38
2019-02-27T09:33:39.241Z,1873.13
2019-02-27T09:34:38.986Z,1788.75
2019-02-27T09:35:38.989Z,2081.25
2019-02-27T09:36:43.017Z,1991.25
2019-02-27T09:37:39.521Z,1800.00
2019-02-27T09:38:38.915Z,1957.50
2019-02-27T09:39:38.909Z,1895.63
2019-02-27T09:40:39.685Z,2047.50
2019-02-27T09:41:38.877Z,2041.88
2019-02-27T09:44:08.931Z,2171.25
2019-02-27T09:46:09.251Z,1996.88
2019-02-27T09:47:07.044Z,1985.63
2019-02-27T09:48:02.936Z,2154.38
2019-02-27T09:49:06.872Z,2154.38
2019-02-27T09:50:02.905Z,2165.63
2019-02-27T09:51:02.895Z,2199.38
2019-02-27T09:52:02.874Z,2216.25
2019-02-27T09:53:03.613Z,2373.75
2019-02-27T09:54:02.851Z,2064.38
2019-02-27T09:55:02.836Z,1642.50
2019-02-27T09:56:02.834Z,1080.00
2019-02-27T09:57:02.899Z,1080.00
2019-02-27T09:58:02.793Z,1665.00
2019-02-27T09:59:02.788Z,2148.75
2019-02-27T10:00:03.007Z,2373.75
2019-02-27T10:01:03.231Z,2407.50
2019-02-27T10:02:02.746Z,2205.00
2019-02-27T10:03:02.729Z,1878.75
2019-02-27T10:04:02.717Z,2216.25
2019-02-27T10:05:03.706Z,2362.50
2019-02-27T10:06:02.690Z,2266.88
2019-02-27T10:07:02.678Z,2216.25
2019-02-27T10:08:02.665Z,1980.00
2019-02-27T10:09:02.655Z,1974.38
2019-02-27T10:10:02.648Z,2188.13
2019-02-27T10:11:02.631Z,1603.13
2019-02-27T10:12:02.618Z,1108.13
2019-02-27T10:13:03.339Z,1434.38
2019-02-27T10:14:02.595Z,1501.88
2019-02-27T10:15:02.578Z,1406.25
2019-02-27T10:16:03.730Z,1771.88
2019-02-27T10:17:02.558Z,2126.25
2019-02-27T10:18:02.542Z,2188.13
2019-02-27T10:19:02.629Z,2491.88
2019-02-27T10:20:02.948Z,2587.50
2019-02-27T10:21:02.511Z,2514.38
2019-02-27T10:22:02.494Z,2458.13
2019-02-27T10:23:02.483Z,2503.13
2019-02-27T10:24:04.866Z,2593.13
2019-02-27T10:25:02.455Z,2446.88
2019-02-27T10:26:02.442Z,2463.75
2019-02-27T10:27:02.437Z,2356.88
2019-02-27T10:28:04.393Z,2233.13
2019-02-27T10:29:02.415Z,2131.88
2019-02-27T10:30:11.088Z,2266.88
2019-02-27T10:31:02.390Z,2306.25
2019-02-27T10:32:02.371Z,2424.38
2019-02-27T10:33:03.386Z,2435.63
2019-02-27T10:34:02.350Z,2480.63
2019-02-27T10:35:02.340Z,2548.13
2019-02-27T10:36:03.799Z,2503.13
2019-02-27T10:37:02.417Z,2452.50
2019-02-27T10:38:02.301Z,2469.38
2019-02-27T10:39:02.843Z,2463.75
2019-02-27T10:40:02.294Z,2323.13
2019-02-27T10:41:02.272Z,2306.25
2019-02-27T10:42:02.254Z,2418.75
2019-02-27T10:43:02.261Z,2390.63
2019-02-27T10:44:02.234Z,2435.63
2019-02-27T10:45:02.222Z,2379.38
2019-02-27T10:46:02.213Z,2345.63
2019-02-27T10:47:02.201Z,2362.50
2019-02-27T10:48:02.190Z,2368.13
2019-02-27T10:49:02.186Z,2272.50
2019-02-27T10:50:03.056Z,2176.88
2019-02-27T10:51:02.164Z,1828.13
2019-02-27T10:52:02.146Z,1586.25
2019-02-27T10:53:02.136Z,1361.25
2019-02-27T10:54:05.170Z,1164.38
2019-02-27T10:55:02.121Z,1012.50
2019-02-27T10:56:02.109Z,871.88
2019-02-27T10:57:02.099Z,759.38
2019-02-27T10:58:02.083Z,720.00
2019-02-27T10:59:02.076Z,697.50
2019-02-27T11:00:02.060Z,686.25
2019-02-27T11:01:02.049Z,675.00
2019-02-27T11:02:02.084Z,669.38
2019-02-27T11:03:02.027Z,658.13
2019-02-27T11:04:03.098Z,652.50
2019-02-27T11:05:02.001Z,652.50
2019-02-27T11:06:01.992Z,652.50
2019-02-27T11:07:01.979Z,646.88
2019-02-27T11:08:01.970Z,635.63
2019-02-27T11:09:04.470Z,635.63
2019-02-27T11:10:01.954Z,630.00
2019-02-27T11:11:01.944Z,624.38
2019-02-27T11:12:01.929Z,624.38
2019-02-27T11:13:05.518Z,618.75
2019-02-27T11:14:01.903Z,618.75
2019-02-27T11:15:01.895Z,624.38
2019-02-27T11:16:01.888Z,618.75
2019-02-27T11:17:02.741Z,618.75
2019-02-27T11:18:05.378Z,618.75
2019-02-27T11:19:01.845Z,618.75
2019-02-27T11:20:01.853Z,613.13
2019-02-27T11:21:01.823Z,613.13
2019-02-27T11:22:01.820Z,618.75
2019-02-27T11:23:06.528Z,630.00
2019-02-27T11:24:01.790Z,630.00
2019-02-27T11:25:01.778Z,652.50
2019-02-27T11:26:01.924Z,720.00
2019-02-27T11:27:05.745Z,860.63
2019-02-27T11:28:01.743Z,1091.25
2019-02-27T11:29:01.733Z,1316.25
2019-02-27T11:30:03.090Z,1563.75
2019-02-27T11:31:01.718Z,1828.13
2019-02-27T11:32:01.702Z,2019.38
2019-02-27T11:33:01.698Z,2036.25
2019-02-27T11:34:01.675Z,2030.63
2019-02-27T11:35:01.673Z,2064.38
2019-02-27T11:36:03.228Z,2019.38
2019-02-27T11:37:01.646Z,2081.25
2019-02-27T11:38:01.641Z,2081.25
2019-02-27T11:39:01.618Z,2160.00
2019-02-27T11:40:01.616Z,2188.13
2019-02-27T11:41:01.599Z,2064.38
2019-02-27T11:42:01.589Z,2070.00
2019-02-27T11:43:06.366Z,2176.88
2019-02-27T11:44:01.560Z,2148.75
2019-02-27T11:45:01.568Z,2143.13
2019-02-27T11:46:01.539Z,2216.25
2019-02-27T11:47:01.529Z,2199.38
2019-02-27T11:48:01.519Z,2283.75
2019-02-27T11:49:03.191Z,2255.63
2019-02-27T11:50:01.490Z,2255.63
2019-02-27T11:51:01.478Z,2210.63
2019-02-27T11:52:01.480Z,2008.13
2019-02-27T11:53:02.744Z,1929.38
2019-02-27T11:54:01.441Z,1906.88
2019-02-27T11:55:01.430Z,2081.25
2019-02-27T11:56:01.416Z,2047.50
2019-02-27T11:57:01.405Z,2053.13
2019-02-27T11:58:04.423Z,2053.13
2019-02-27T11:59:01.404Z,2081.25
2019-02-27T12:00:01.378Z,2070.00
2019-02-27T12:01:01.367Z,1940.63
2019-02-27T12:02:01.342Z,1935.00
2019-02-27T12:03:01.330Z,1856.25
2019-02-27T12:04:01.330Z,1828.13
2019-02-27T12:05:01.309Z,1845.00
2019-02-27T12:06:01.299Z,1867.50
2019-02-27T12:07:01.287Z,1850.63
2019-02-27T12:08:01.265Z,1023.75
2019-02-27T12:09:01.253Z,410.63
2019-02-27T12:10:01.241Z,365.63
2019-02-27T12:11:01.227Z,348.75
2019-02-27T12:12:01.263Z,326.25
2019-02-27T12:13:01.665Z,315.00
2019-02-27T12:14:01.186Z,303.75
2019-02-27T12:15:01.180Z,298.13
2019-02-27T12:16:01.160Z,286.88
2019-02-27T12:17:01.172Z,281.25
2019-02-27T12:18:01.712Z,270.00
2019-02-27T12:19:01.132Z,264.38
2019-02-27T12:20:01.106Z,258.75
2019-02-27T12:21:01.097Z,258.75
2019-02-27T12:22:01.079Z,253.13
2019-02-27T12:23:01.069Z,247.50
2019-02-27T12:24:01.059Z,247.50
2019-02-27T12:25:01.044Z,241.88
2019-02-27T12:26:02.467Z,241.88
2019-02-27T12:27:01.009Z,236.25
2019-02-27T12:28:00.997Z,236.25
2019-02-27T12:29:00.988Z,230.63
2019-02-27T12:30:02.989Z,230.63
2019-02-27T12:31:00.969Z,230.63
2019-02-27T12:32:00.940Z,225.00
2019-02-27T12:33:00.936Z,225.00
2019-02-27T12:34:03.345Z,219.38
2019-02-27T12:35:03.029Z,213.75
2019-02-27T12:36:00.897Z,208.13
2019-02-27T12:37:00.873Z,208.13
2019-02-27T12:38:00.854Z,208.13
2019-02-27T12:39:00.838Z,202.50
2019-02-27T12:40:00.842Z,202.50
2019-02-27T12:41:00.808Z,202.50
2019-02-27T12:42:00.804Z,202.50
2019-02-27T12:43:00.777Z,196.88
2019-02-27T12:44:00.779Z,196.88
2019-02-27T12:45:00.762Z,196.88
2019-02-27T12:46:01.608Z,196.88
2019-02-27T12:47:00.729Z,196.88
2019-02-27T12:48:00.710Z,196.88
2019-02-27T12:49:00.688Z,196.88
2019-02-27T12:50:00.674Z,196.88
2019-02-27T12:51:03.499Z,196.88